createdAt,value
2022-08-17T00:02:26.250Z,99.90
2022-08-17T00:04:55.436Z,99.90
2022-08-17T00:07:23.026Z,99.90
2022-08-17T00:09:50.093Z,99.90
2022-08-17T00:12:43.626Z,99.90
2022-08-17T00:15:06.144Z,99.90
2022-08-17T00:17:37.284Z,99.90
2022-08-17T00:20:05.287Z,99.90
2022-08-17T00:22:36.334Z,99.90
2022-08-17T00:25:14.081Z,99.90
2022-08-17T00:27:41.341Z,99.90
2022-08-17T00:30:11.477Z,99.90
2022-08-17T00:33:23.387Z,99.90
2022-08-17T00:35:31.665Z,99.90
2022-08-17T00:37:58.445Z,99.90
2022-08-17T00:40:25.386Z,99.90
2022-08-17T00:42:53.407Z,99.90
2022-08-17T00:45:21.105Z,99.90
2022-08-17T00:47:49.468Z,99.90
2022-08-17T00:50:18.796Z,99.90
2022-08-17T00:52:55.149Z,99.90
2022-08-17T00:55:23.879Z,99.90
2022-08-17T00:57:55.520Z,99.90
2022-08-17T01:00:30.563Z,99.90
2022-08-17T01:03:19.543Z,99.90
2022-08-17T01:05:50.180Z,99.90
2022-08-17T01:08:19.687Z,99.90
2022-08-17T01:10:59.139Z,99.90
2022-08-17T01:13:38.187Z,99.90
2022-08-17T01:16:26.369Z,99.90
2022-08-17T01:19:00.808Z,99.90
2022-08-17T01:21:40.161Z,99.90
2022-08-17T01:24:08.113Z,99.90
2022-08-17T01:26:35.965Z,99.90
2022-08-17T01:29:05.652Z,99.90
2022-08-17T01:31:38.048Z,99.90
2022-08-17T01:34:09.762Z,99.90
2022-08-17T01:36:38.916Z,99.90
2022-08-17T01:39:09.083Z,99.90
2022-08-17T01:41:37.941Z,99.90
2022-08-17T01:44:07.790Z,99.90
2022-08-17T01:46:36.945Z,99.90
2022-08-17T01:49:09.554Z,99.90
2022-08-17T01:51:36.295Z,99.90
2022-08-17T01:54:08.451Z,99.90
2022-08-17T01:56:38.624Z,99.90
2022-08-17T01:59:05.540Z,99.90
2022-08-17T02:01:35.817Z,99.90
2022-08-17T02:04:04.434Z,99.90
2022-08-17T02:06:44.940Z,99.90
2022-08-17T02:09:16.711Z,99.90
2022-08-17T02:11:44.746Z,99.90
2022-08-17T02:14:13.409Z,99.90
2022-08-17T02:16:41.648Z,99.90
2022-08-17T02:19:12.068Z,99.90
2022-08-17T02:21:40.715Z,99.90
2022-08-17T02:24:10.858Z,99.90
2022-08-17T02:26:37.783Z,99.90
2022-08-17T02:29:04.920Z,99.90
2022-08-17T02:31:32.245Z,99.90
2022-08-17T02:34:03.935Z,99.90
2022-08-17T02:36:36.309Z,99.90
2022-08-17T02:39:06.391Z,99.90
2022-08-17T02:41:33.468Z,99.90
2022-08-17T02:44:00.672Z,99.90
2022-08-17T02:46:28.332Z,99.90
2022-08-17T02:48:55.278Z,99.90
2022-08-17T02:51:22.202Z,99.90
2022-08-17T02:53:49.147Z,99.90
2022-08-17T02:56:16.414Z,99.90
2022-08-17T02:58:43.235Z,99.90
2022-08-17T03:01:10.790Z,99.90
2022-08-17T03:03:38.160Z,99.90
2022-08-17T03:06:07.519Z,99.90
2022-08-17T03:08:34.732Z,99.90
2022-08-17T03:11:01.692Z,99.90
2022-08-17T03:13:28.667Z,99.90
2022-08-17T03:15:55.556Z,99.90
2022-08-17T03:18:24.881Z,99.90
2022-08-17T03:20:59.970Z,99.90
2022-08-17T03:23:29.677Z,99.90
2022-08-17T03:25:57.993Z,99.90
2022-08-17T03:28:25.024Z,99.90
2022-08-17T03:30:52.177Z,99.90
2022-08-17T03:33:19.858Z,99.90
2022-08-17T03:35:47.345Z,99.90
2022-08-17T03:38:15.959Z,99.90
2022-08-17T03:40:58.020Z,99.90
2022-08-17T03:43:28.369Z,99.90
2022-08-17T03:46:34.448Z,99.90
2022-08-17T03:49:19.549Z,99.90
2022-08-17T03:52:05.088Z,99.90
2022-08-17T03:54:50.366Z,99.90
2022-08-17T03:57:18.475Z,99.90
2022-08-17T03:59:45.446Z,99.90
2022-08-17T04:02:26.414Z,99.90
2022-08-17T04:04:54.161Z,99.90
2022-08-17T04:07:23.791Z,99.90
2022-08-17T04:09:51.146Z,99.90
2022-08-17T04:12:21.435Z,99.90
2022-08-17T04:14:53.562Z,99.90
2022-08-17T04:17:24.165Z,99.90
2022-08-17T04:19:51.373Z,99.90
2022-08-17T04:22:30.353Z,99.90
2022-08-17T04:24:59.181Z,99.90
2022-08-17T04:27:26.064Z,99.90
2022-08-17T04:29:55.549Z,99.90
2022-08-17T04:33:04.896Z,99.90
2022-08-17T04:35:11.128Z,99.90
2022-08-17T04:37:38.127Z,99.90
2022-08-17T04:40:27.234Z,99.90
2022-08-17T04:43:24.545Z,99.90
2022-08-17T04:45:56.179Z,99.90
2022-08-17T04:48:29.762Z,99.90
2022-08-17T04:51:03.600Z,99.90
2022-08-17T04:53:30.581Z,99.90
2022-08-17T04:55:59.023Z,99.90
2022-08-17T04:58:25.835Z,99.90
2022-08-17T05:00:52.750Z,99.90
2022-08-17T05:03:19.617Z,99.90
2022-08-17T05:05:49.820Z,99.90
2022-08-17T05:08:18.744Z,99.90
2022-08-17T05:10:46.930Z,99.90
2022-08-17T05:13:20.570Z,99.90
2022-08-17T05:15:49.722Z,99.90
2022-08-17T05:18:17.425Z,99.90
2022-08-17T05:20:45.138Z,99.90
2022-08-17T05:23:14.731Z,99.90
2022-08-17T05:25:48.405Z,99.90
2022-08-17T05:28:20.847Z,99.90
2022-08-17T05:30:51.492Z,99.90
2022-08-17T05:33:24.961Z,99.90
2022-08-17T05:35:54.448Z,99.90
2022-08-17T05:38:23.427Z,99.90
2022-08-17T05:40:50.769Z,99.90
2022-08-17T05:43:28.381Z,99.90
2022-08-17T05:46:03.973Z,99.90
2022-08-17T05:48:59.393Z,99.90
2022-08-17T05:51:35.103Z,99.90
2022-08-17T05:54:20.773Z,99.90
2022-08-17T05:56:59.745Z,99.90
2022-08-17T05:59:54.408Z,99.90
2022-08-17T06:02:34.585Z,99.90
2022-08-17T06:05:15.419Z,99.90
2022-08-17T06:08:12.155Z,99.90
2022-08-17T06:11:30.235Z,99.90
2022-08-17T06:14:02.957Z,99.90
2022-08-17T06:16:36.702Z,99.90
2022-08-17T06:19:13.300Z,99.90
2022-08-17T06:21:44.936Z,99.90
2022-08-17T06:24:23.887Z,99.90
2022-08-17T06:26:52.301Z,99.90
2022-08-17T06:29:39.270Z,99.90
2022-08-17T06:32:09.199Z,99.90
2022-08-17T06:34:40.720Z,99.90
2022-08-17T06:37:31.460Z,99.90
2022-08-17T06:40:20.341Z,99.90
2022-08-17T06:43:04.089Z,99.90
2022-08-17T06:45:49.249Z,99.90
2022-08-17T06:48:33.467Z,99.90
2022-08-17T06:51:27.786Z,99.90
2022-08-17T06:54:06.491Z,99.90
2022-08-17T06:56:53.354Z,99.90
2022-08-17T06:59:36.347Z,99.90
2022-08-17T07:02:20.102Z,99.90
2022-08-17T07:04:56.833Z,99.90
2022-08-17T07:07:42.005Z,99.90
2022-08-17T07:10:10.098Z,99.90
2022-08-17T07:12:40.472Z,99.90
2022-08-17T07:15:21.643Z,99.90
2022-08-17T07:17:48.949Z,99.90
2022-08-17T07:20:20.580Z,99.90
2022-08-17T07:23:06.777Z,99.90
2022-08-17T07:25:33.606Z,99.90
2022-08-17T07:28:06.022Z,99.90
2022-08-17T07:30:47.065Z,99.90
2022-08-17T07:33:29.558Z,99.90
2022-08-17T07:35:58.082Z,99.90
2022-08-17T07:38:30.406Z,99.90
2022-08-17T07:40:57.886Z,99.90
2022-08-17T07:43:31.890Z,99.90
2022-08-17T07:46:17.632Z,99.90
2022-08-17T07:48:51.573Z,99.90
2022-08-17T07:51:45.745Z,99.90
2022-08-17T07:54:15.704Z,99.90
2022-08-17T07:56:44.653Z,99.90
2022-08-17T07:59:15.768Z,99.90
2022-08-17T08:02:06.302Z,99.90
2022-08-17T08:05:00.117Z,99.90
2022-08-17T08:07:39.378Z,99.90
2022-08-17T08:10:06.229Z,99.90
2022-08-17T08:12:37.738Z,99.90
2022-08-17T08:15:17.681Z,99.90
2022-08-17T08:18:02.867Z,99.90
2022-08-17T08:20:52.440Z,99.90
2022-08-17T08:23:33.374Z,99.90
2022-08-17T08:26:06.243Z,99.90
2022-08-17T08:28:45.126Z,99.90
2022-08-17T08:31:41.636Z,99.90
2022-08-17T08:34:45.031Z,99.90
2022-08-17T08:37:34.554Z,99.90
2022-08-17T08:40:28.239Z,99.90
2022-08-17T08:43:27.095Z,99.90
2022-08-17T08:46:35.628Z,99.90
2022-08-17T08:49:45.551Z,99.90
2022-08-17T08:52:27.787Z,99.90
2022-08-17T08:55:04.358Z,99.90
2022-08-17T08:57:43.592Z,99.90
2022-08-17T09:00:15.162Z,99.90
2022-08-17T09:03:03.358Z,99.90
2022-08-17T09:05:49.054Z,99.90
2022-08-17T09:08:53.316Z,99.90
2022-08-17T09:12:02.339Z,99.90
2022-08-17T09:15:12.956Z,99.90
2022-08-17T09:21:05.697Z,99.90
2022-08-17T09:23:39.178Z,99.90
2022-08-17T09:26:22.062Z,99.90
2022-08-17T09:28:53.013Z,99.90
2022-08-17T09:31:33.241Z,99.90
2022-08-17T09:34:03.488Z,99.90
2022-08-17T09:36:52.632Z,99.90
2022-08-17T09:39:39.429Z,99.90
2022-08-17T09:42:16.708Z,99.90
2022-08-17T09:45:02.754Z,99.90
2022-08-17T09:47:38.205Z,99.90
2022-08-17T09:51:03.368Z,99.90
2022-08-17T09:53:09.463Z,99.90
2022-08-17T09:55:43.567Z,99.90
2022-08-17T09:58:35.340Z,99.90
2022-08-17T10:01:11.362Z,99.90
2022-08-17T10:04:49.936Z,99.90
2022-08-17T10:07:28.639Z,99.90
2022-08-17T10:10:14.283Z,99.90
2022-08-17T10:12:50.283Z,99.70
2022-08-17T10:15:54.289Z,99.40
2022-08-17T10:18:48.571Z,99.20
2022-08-17T10:21:35.418Z,99.10
2022-08-17T10:24:37.260Z,99.20
2022-08-17T10:27:14.576Z,98.60
2022-08-17T10:29:55.447Z,98.70
2022-08-17T10:32:47.720Z,98.70
2022-08-17T10:35:42.641Z,98.40
2022-08-17T10:38:39.709Z,99.00
2022-08-17T10:41:16.614Z,99.00
2022-08-17T10:44:38.758Z,99.30
2022-08-17T10:47:06.878Z,99.50
2022-08-17T10:49:47.518Z,99.70
2022-08-17T10:52:20.512Z,99.50
2022-08-17T10:54:58.064Z,99.30
2022-08-17T10:57:31.933Z,99.20
2022-08-17T11:00:02.963Z,98.90
2022-08-17T11:02:53.761Z,99.00
2022-08-17T11:05:43.702Z,99.30
2022-08-17T11:08:31.957Z,98.90
2022-08-17T11:11:14.705Z,98.30
2022-08-17T11:13:47.587Z,98.50
2022-08-17T11:16:40.755Z,98.60
2022-08-17T11:19:26.424Z,98.50
2022-08-17T11:22:33.670Z,98.70
2022-08-17T11:25:15.417Z,98.10
2022-08-17T11:27:43.999Z,98.50
2022-08-17T11:30:47.033Z,98.70
2022-08-17T11:33:33.972Z,98.70
2022-08-17T11:36:29.532Z,98.80
2022-08-17T11:39:26.331Z,99.10
2022-08-17T11:42:11.989Z,99.70
2022-08-17T11:45:07.818Z,99.50
2022-08-17T11:48:26.611Z,99.90
2022-08-17T11:51:17.170Z,99.90
2022-08-17T11:53:44.008Z,99.90
2022-08-17T11:56:29.055Z,99.90
2022-08-17T11:58:56.369Z,99.90
2022-08-17T12:01:23.154Z,99.90
2022-08-17T12:04:22.794Z,99.90
2022-08-17T12:06:56.888Z,99.90
2022-08-17T12:09:34.538Z,99.90
2022-08-17T12:12:12.384Z,99.90
2022-08-17T12:15:09.113Z,99.90
2022-08-17T12:17:51.924Z,99.90
2022-08-17T12:20:38.670Z,99.90
2022-08-17T12:23:44.119Z,99.90
2022-08-17T12:26:17.576Z,99.90
2022-08-17T12:28:47.877Z,99.90
2022-08-17T12:31:22.144Z,99.90
2022-08-17T12:33:49.999Z,99.90
2022-08-17T12:36:20.981Z,99.90
2022-08-17T12:39:13.030Z,99.90
2022-08-17T12:41:47.935Z,99.90
2022-08-17T12:44:21.863Z,99.90
2022-08-17T12:47:01.245Z,99.90
2022-08-17T12:49:32.824Z,99.90
2022-08-17T12:52:09.103Z,99.90
2022-08-17T12:54:48.160Z,99.90
2022-08-17T12:57:43.785Z,99.90
2022-08-17T13:00:30.557Z,99.90
2022-08-17T13:03:06.043Z,99.90
2022-08-17T13:05:37.235Z,99.90
2022-08-17T13:08:27.078Z,99.90
2022-08-17T13:10:56.560Z,99.90
2022-08-17T13:13:30.429Z,99.90
2022-08-17T13:16:03.632Z,99.90
2022-08-17T13:18:39.065Z,99.90
2022-08-17T13:21:23.928Z,99.90
2022-08-17T13:24:40.012Z,99.90
2022-08-17T13:27:11.829Z,99.90
2022-08-17T13:29:44.668Z,99.90
2022-08-17T13:32:13.581Z,99.90
2022-08-17T13:35:12.154Z,99.90
2022-08-17T13:37:36.710Z,99.90
2022-08-17T13:40:09.903Z,99.90
2022-08-17T13:42:50.425Z,99.90
2022-08-17T13:45:35.072Z,99.90
2022-08-17T13:48:11.856Z,99.90
2022-08-17T13:51:03.858Z,99.90
2022-08-17T13:53:51.142Z,99.90
2022-08-17T13:56:39.381Z,99.90
2022-08-17T13:59:13.252Z,99.90
2022-08-17T14:01:43.783Z,99.90
2022-08-17T14:04:20.327Z,99.90
2022-08-17T14:07:02.284Z,99.90
2022-08-17T14:09:37.050Z,99.90
2022-08-17T14:12:09.635Z,99.90
2022-08-17T14:14:36.985Z,99.90
2022-08-17T14:17:05.028Z,99.90
2022-08-17T14:19:33.640Z,99.90
2022-08-17T14:22:01.103Z,99.90
2022-08-17T14:24:31.089Z,99.90
2022-08-17T14:26:59.611Z,99.90
2022-08-17T14:29:28.405Z,99.90
2022-08-17T14:31:56.516Z,99.90
2022-08-17T14:34:24.645Z,99.90
2022-08-17T14:36:52.254Z,99.90
2022-08-17T14:39:20.175Z,99.90
2022-08-17T14:41:47.402Z,99.90
2022-08-17T14:44:14.602Z,99.90
2022-08-17T14:46:43.136Z,99.90
2022-08-17T14:49:11.657Z,99.90
2022-08-17T14:51:44.046Z,99.90
2022-08-17T14:54:32.724Z,99.90
2022-08-17T14:57:22.374Z,99.90
2022-08-17T14:59:52.295Z,99.90
2022-08-17T15:02:29.696Z,99.90
2022-08-17T15:05:04.468Z,99.90
2022-08-17T15:07:31.836Z,99.90
2022-08-17T15:10:02.809Z,99.90
2022-08-17T15:12:34.595Z,99.90
2022-08-17T15:15:06.312Z,99.90
2022-08-17T15:17:54.596Z,99.90
2022-08-17T15:20:27.919Z,99.90
2022-08-17T15:22:56.067Z,99.90
2022-08-17T15:25:25.582Z,99.90
2022-08-17T15:27:52.887Z,99.90
2022-08-17T15:30:20.110Z,99.90
2022-08-17T15:32:51.339Z,99.90
2022-08-17T15:35:27.330Z,99.90
2022-08-17T15:38:04.639Z,99.90
2022-08-17T15:40:37.586Z,99.90
2022-08-17T15:43:11.284Z,99.90
2022-08-17T15:45:38.829Z,99.90
2022-08-17T15:48:05.860Z,99.90
2022-08-17T15:50:33.028Z,99.90
2022-08-17T15:53:01.269Z,99.90
2022-08-17T15:55:30.060Z,99.90
2022-08-17T15:57:56.987Z,99.90
2022-08-17T16:00:24.106Z,99.90
2022-08-17T16:03:45.756Z,99.90
2022-08-17T16:05:38.089Z,99.90
2022-08-17T16:08:07.881Z,99.90
2022-08-17T16:10:35.993Z,99.90
2022-08-17T16:13:04.114Z,99.90
2022-08-17T16:15:31.968Z,99.90
2022-08-17T16:18:00.214Z,99.90
2022-08-17T16:20:27.267Z,99.90
2022-08-17T16:22:55.156Z,99.90
2022-08-17T16:25:38.330Z,99.90
2022-08-17T16:28:17.651Z,99.90
2022-08-17T16:30:44.642Z,99.90
2022-08-17T16:33:12.579Z,99.90
2022-08-17T16:35:39.835Z,99.90
2022-08-17T16:38:07.198Z,99.90
2022-08-17T16:40:36.295Z,99.90
2022-08-17T16:43:06.944Z,99.90
2022-08-17T16:45:36.695Z,99.90
2022-08-17T16:48:04.459Z,99.90
2022-08-17T16:50:32.330Z,99.90
2022-08-17T16:53:07.577Z,99.90
2022-08-17T16:55:37.659Z,99.90
2022-08-17T16:58:05.537Z,99.90
2022-08-17T17:00:36.147Z,99.90
2022-08-17T17:03:18.942Z,99.90
2022-08-17T17:06:22.771Z,99.90
2022-08-17T17:08:59.843Z,99.90
2022-08-17T17:11:34.136Z,99.90
2022-08-17T17:14:05.846Z,99.90
2022-08-17T17:16:59.916Z,99.90
2022-08-17T17:19:39.174Z,99.90
2022-08-17T17:22:45.577Z,99.90
2022-08-17T17:25:12.390Z,99.90
2022-08-17T17:27:49.750Z,99.90
2022-08-17T17:30:25.803Z,99.90
2022-08-17T17:33:18.463Z,99.90
2022-08-17T17:35:59.260Z,99.90
2022-08-17T17:38:42.975Z,99.90
2022-08-17T17:41:25.347Z,99.90
2022-08-17T17:44:05.027Z,99.90
2022-08-17T17:46:39.930Z,99.90
2022-08-17T17:49:06.926Z,99.90
2022-08-17T17:52:07.626Z,99.90
2022-08-17T17:54:51.371Z,99.90
2022-08-17T17:57:25.762Z,99.90
2022-08-17T18:00:12.479Z,99.90
2022-08-17T18:03:16.754Z,99.90
2022-08-17T18:06:03.386Z,99.90
2022-08-17T18:08:50.755Z,99.90
2022-08-17T18:11:24.974Z,99.90
2022-08-17T18:14:22.407Z,99.90
2022-08-17T18:16:55.574Z,99.90
2022-08-17T18:19:25.602Z,99.90
2022-08-17T18:22:01.415Z,99.90
2022-08-17T18:24:38.681Z,99.90
2022-08-17T18:27:34.554Z,99.90
2022-08-17T18:30:21.344Z,99.90
2022-08-17T18:32:48.431Z,99.90
2022-08-17T18:35:18.306Z,99.90
2022-08-17T18:37:47.064Z,99.90
2022-08-17T18:40:17.158Z,99.90
2022-08-17T18:42:46.411Z,99.90
2022-08-17T18:45:30.085Z,99.90
2022-08-17T18:47:57.545Z,99.90
2022-08-17T18:50:39.639Z,99.90
2022-08-17T18:53:33.308Z,99.90
2022-08-17T18:56:37.466Z,99.90
2022-08-17T18:59:22.174Z,99.90
2022-08-17T19:02:09.968Z,99.90
2022-08-17T19:05:04.665Z,99.90
2022-08-17T19:07:44.237Z,99.90
2022-08-17T19:10:46.139Z,99.90
2022-08-17T19:13:39.121Z,99.90
2022-08-17T19:16:16.051Z,99.90
2022-08-17T19:19:07.582Z,99.90
2022-08-17T19:21:38.229Z,99.90
2022-08-17T19:24:11.203Z,99.90
2022-08-17T19:26:53.637Z,99.90
2022-08-17T19:29:43.201Z,99.90
2022-08-17T19:32:12.647Z,99.90
2022-08-17T19:34:44.555Z,99.90
2022-08-17T19:37:32.633Z,99.90
2022-08-17T19:40:08.861Z,99.90
2022-08-17T19:43:07.974Z,99.90
2022-08-17T19:45:49.940Z,99.90
2022-08-17T19:48:35.591Z,99.90
2022-08-17T19:51:15.515Z,99.90
2022-08-17T19:54:06.943Z,99.90
2022-08-17T19:56:44.904Z,99.90
2022-08-17T19:59:49.504Z,99.90
2022-08-17T20:02:25.328Z,99.90
2022-08-17T20:04:55.664Z,99.90
2022-08-17T20:07:26.358Z,99.90
2022-08-17T20:10:02.515Z,99.90
2022-08-17T20:12:38.273Z,99.90
2022-08-17T20:15:20.317Z,99.90
2022-08-17T20:17:48.262Z,99.90
2022-08-17T20:20:26.851Z,99.90
2022-08-17T20:22:59.657Z,99.90
2022-08-17T20:25:57.287Z,99.90
2022-08-17T20:28:31.162Z,99.90
2022-08-17T20:30:58.642Z,99.90
2022-08-17T20:33:36.754Z,99.90
2022-08-17T20:36:22.715Z,99.90
2022-08-17T20:38:54.840Z,99.90
2022-08-17T20:41:24.696Z,99.90
2022-08-17T20:44:11.786Z,99.90
2022-08-17T20:46:38.740Z,99.90
2022-08-17T20:49:08.647Z,99.90
2022-08-17T20:52:01.002Z,99.90
2022-08-17T20:54:48.470Z,99.90
2022-08-17T20:57:36.635Z,99.90
2022-08-17T21:00:17.501Z,99.90
2022-08-17T21:02:49.542Z,99.90
2022-08-17T21:05:35.939Z,99.90
2022-08-17T21:08:15.419Z,99.90
2022-08-17T21:10:46.904Z,99.90
2022-08-17T21:13:15.593Z,99.90
2022-08-17T21:15:48.575Z,99.90
2022-08-17T21:18:18.486Z,99.90
2022-08-17T21:21:27.459Z,99.90
2022-08-17T21:24:19.393Z,99.90
2022-08-17T21:27:01.514Z,99.90
2022-08-17T21:29:33.780Z,99.90
2022-08-17T21:32:04.351Z,99.90
2022-08-17T21:34:37.783Z,99.90
2022-08-17T21:37:34.929Z,99.90
2022-08-17T21:40:24.873Z,99.90
2022-08-17T21:42:55.702Z,99.90
2022-08-17T21:45:40.384Z,99.90
2022-08-17T21:48:21.173Z,99.90
2022-08-17T21:51:12.024Z,99.90
2022-08-17T21:53:52.719Z,99.90
2022-08-17T21:56:29.489Z,99.90
2022-08-17T21:59:03.050Z,99.90
2022-08-17T22:01:34.368Z,99.90
2022-08-17T22:04:11.226Z,99.90
2022-08-17T22:06:40.977Z,99.90
2022-08-17T22:09:11.303Z,99.90
2022-08-17T22:11:54.793Z,99.90
2022-08-17T22:14:26.681Z,99.90
2022-08-17T22:17:25.909Z,99.90
2022-08-17T22:20:25.092Z,99.90
2022-08-17T22:23:13.433Z,99.90
2022-08-17T22:25:57.029Z,99.90
2022-08-17T22:28:45.531Z,99.90
2022-08-17T22:31:16.595Z,99.90
2022-08-17T22:33:52.377Z,99.90
2022-08-17T22:36:29.267Z,99.90
2022-08-17T22:39:16.433Z,99.90
2022-08-17T22:42:00.853Z,99.90
2022-08-17T22:44:35.676Z,99.90
2022-08-17T22:47:23.211Z,99.90
2022-08-17T22:50:02.556Z,99.90
2022-08-17T22:52:32.088Z,99.90
2022-08-17T22:55:32.350Z,99.90
2022-08-17T22:58:18.824Z,99.90
2022-08-17T23:00:48.761Z,99.90
2022-08-17T23:06:10.537Z,99.90
2022-08-17T23:08:54.687Z,99.90
2022-08-17T23:11:39.446Z,99.90
2022-08-17T23:14:14.494Z,99.90
2022-08-17T23:16:44.686Z,99.90
2022-08-17T23:19:18.582Z,99.90
2022-08-17T23:21:46.006Z,99.90
2022-08-17T23:24:27.943Z,99.90
2022-08-17T23:26:57.069Z,99.90
2022-08-17T23:29:25.109Z,99.90
2022-08-17T23:31:52.523Z,99.90
2022-08-17T23:34:19.707Z,99.90
2022-08-17T23:36:51.280Z,99.90
2022-08-17T23:39:24.688Z,99.90
2022-08-17T23:41:58.022Z,99.90
2022-08-17T23:44:25.218Z,99.90
2022-08-17T23:46:53.228Z,99.90
2022-08-17T23:49:20.551Z,99.90
2022-08-17T23:51:48.783Z,99.90
2022-08-17T23:54:19.341Z,99.90
2022-08-17T23:56:49.436Z,99.90
2022-08-17T23:59:19.275Z,99.90
